sensor_id;sensor_type;location;lat;lon;timestamp;P1;durP1;ratioP1;P2;durP2;ratioP2
36443;SDS011;24692;45.642;13.806;2024-01-11T00:02:23;16.77;;;8.17;;
36443;SDS011;24692;45.642;13.806;2024-01-11T00:04:49;15.53;;;8.70;;
36443;SDS011;24692;45.642;13.806;2024-01-11T00:07:15;16.13;;;8.73;;
36443;SDS011;24692;45.642;13.806;2024-01-11T00:09:41;15.33;;;8.80;;
36443;SDS011;24692;45.642;13.806;2024-01-11T00:12:07;15.40;;;8.10;;
36443;SDS011;24692;45.642;13.806;2024-01-11T00:14:33;15.77;;;7.83;;
36443;SDS011;24692;45.642;13.806;2024-01-11T00:17:00;13.80;;;8.03;;
36443;SDS011;24692;45.642;13.806;2024-01-11T00:19:26;13.90;;;8.20;;
36443;SDS011;24692;45.642;13.806;2024-01-11T00:21:51;14.23;;;8.33;;
36443;SDS011;24692;45.642;13.806;2024-01-11T00:24:17;17.13;;;8.30;;
36443;SDS011;24692;45.642;13.806;2024-01-11T00:26:43;14.50;;;7.90;;
36443;SDS011;24692;45.642;13.806;2024-01-11T00:29:08;13.27;;;7.50;;
36443;SDS011;24692;45.642;13.806;2024-01-11T00:31:34;14.17;;;7.30;;
36443;SDS011;24692;45.642;13.806;2024-01-11T00:34:00;14.13;;;7.53;;
36443;SDS011;24692;45.642;13.806;2024-01-11T00:36:26;11.93;;;7.50;;
36443;SDS011;24692;45.642;13.806;2024-01-11T00:38:53;13.10;;;6.87;;
36443;SDS011;24692;45.642;13.806;2024-01-11T00:41:19;14.07;;;7.67;;
36443;SDS011;24692;45.642;13.806;2024-01-11T00:43:44;15.70;;;8.07;;
36443;SDS011;24692;45.642;13.806;2024-01-11T00:46:10;15.00;;;8.17;;
36443;SDS011;24692;45.642;13.806;2024-01-11T00:48:36;13.87;;;7.57;;
36443;SDS011;24692;45.642;13.806;2024-01-11T00:51:03;14.20;;;7.37;;
36443;SDS011;24692;45.642;13.806;2024-01-11T00:53:29;15.30;;;7.67;;
36443;SDS011;24692;45.642;13.806;2024-01-11T00:55:59;11.17;;;6.93;;
36443;SDS011;24692;45.642;13.806;2024-01-11T00:58:25;12.67;;;7.30;;
36443;SDS011;24692;45.642;13.806;2024-01-11T01:00:51;13.40;;;7.00;;
36443;SDS011;24692;45.642;13.806;2024-01-11T01:03:20;15.27;;;7.10;;
36443;SDS011;24692;45.642;13.806;2024-01-11T01:05:46;10.43;;;6.63;;
36443;SDS011;24692;45.642;13.806;2024-01-11T01:08:12;11.50;;;6.67;;
36443;SDS011;24692;45.642;13.806;2024-01-11T01:10:38;11.10;;;6.67;;
36443;SDS011;24692;45.642;13.806;2024-01-11T01:13:04;12.00;;;6.77;;
36443;SDS011;24692;45.642;13.806;2024-01-11T01:15:30;9.93;;;6.20;;
36443;SDS011;24692;45.642;13.806;2024-01-11T01:17:56;12.47;;;6.97;;
36443;SDS011;24692;45.642;13.806;2024-01-11T01:20:21;12.57;;;6.67;;
36443;SDS011;24692;45.642;13.806;2024-01-11T01:22:47;10.83;;;6.80;;
36443;SDS011;24692;45.642;13.806;2024-01-11T01:25:14;13.17;;;7.07;;
36443;SDS011;24692;45.642;13.806;2024-01-11T01:27:39;10.63;;;6.60;;
36443;SDS011;24692;45.642;13.806;2024-01-11T01:30:05;13.70;;;7.20;;
36443;SDS011;24692;45.642;13.806;2024-01-11T01:32:31;13.47;;;6.50;;
36443;SDS011;24692;45.642;13.806;2024-01-11T01:34:57;11.90;;;6.10;;
36443;SDS011;24692;45.642;13.806;2024-01-11T01:37:23;10.77;;;6.33;;
36443;SDS011;24692;45.642;13.806;2024-01-11T01:39:49;9.67;;;5.90;;
36443;SDS011;24692;45.642;13.806;2024-01-11T01:42:14;10.57;;;6.07;;
36443;SDS011;24692;45.642;13.806;2024-01-11T01:44:40;11.47;;;6.30;;
36443;SDS011;24692;45.642;13.806;2024-01-11T01:47:06;10.10;;;6.20;;
36443;SDS011;24692;45.642;13.806;2024-01-11T01:49:34;11.40;;;6.20;;
36443;SDS011;24692;45.642;13.806;2024-01-11T01:52:00;8.53;;;5.50;;
36443;SDS011;24692;45.642;13.806;2024-01-11T01:54:28;9.43;;;5.80;;
36443;SDS011;24692;45.642;13.806;2024-01-11T01:56:56;9.07;;;5.57;;
36443;SDS011;24692;45.642;13.806;2024-01-11T01:59:21;11.20;;;5.90;;
36443;SDS011;24692;45.642;13.806;2024-01-11T02:01:49;11.77;;;5.87;;
36443;SDS011;24692;45.642;13.806;2024-01-11T02:04:15;9.07;;;5.47;;
36443;SDS011;24692;45.642;13.806;2024-01-11T02:06:41;9.70;;;5.80;;
36443;SDS011;24692;45.642;13.806;2024-01-11T02:09:09;10.43;;;5.80;;
36443;SDS011;24692;45.642;13.806;2024-01-11T02:11:36;9.23;;;5.77;;
36443;SDS011;24692;45.642;13.806;2024-01-11T02:14:04;9.13;;;5.60;;
36443;SDS011;24692;45.642;13.806;2024-01-11T02:16:29;8.87;;;5.43;;
36443;SDS011;24692;45.642;13.806;2024-01-11T02:18:55;8.20;;;5.17;;
36443;SDS011;24692;45.642;13.806;2024-01-11T02:21:21;9.00;;;4.87;;
36443;SDS011;24692;45.642;13.806;2024-01-11T02:26:23;10.87;;;5.97;;
36443;SDS011;24692;45.642;13.806;2024-01-11T02:28:49;9.87;;;5.57;;
36443;SDS011;24692;45.642;13.806;2024-01-11T02:31:15;9.87;;;5.47;;
36443;SDS011;24692;45.642;13.806;2024-01-11T02:33:41;8.80;;;5.33;;
36443;SDS011;24692;45.642;13.806;2024-01-11T02:36:07;10.47;;;5.97;;
36443;SDS011;24692;45.642;13.806;2024-01-11T02:38:33;8.93;;;5.50;;
36443;SDS011;24692;45.642;13.806;2024-01-11T02:41:00;8.90;;;5.73;;
36443;SDS011;24692;45.642;13.806;2024-01-11T02:43:26;10.10;;;5.67;;
36443;SDS011;24692;45.642;13.806;2024-01-11T02:45:55;7.67;;;4.93;;
36443;SDS011;24692;45.642;13.806;2024-01-11T02:48:21;9.13;;;5.53;;
36443;SDS011;24692;45.642;13.806;2024-01-11T02:50:50;9.73;;;5.53;;
36443;SDS011;24692;45.642;13.806;2024-01-11T02:53:16;9.67;;;5.57;;
36443;SDS011;24692;45.642;13.806;2024-01-11T02:55:41;10.57;;;5.90;;
36443;SDS011;24692;45.642;13.806;2024-01-11T02:58:07;8.83;;;5.17;;
36443;SDS011;24692;45.642;13.806;2024-01-11T03:00:33;9.20;;;5.37;;
36443;SDS011;24692;45.642;13.806;2024-01-11T03:02:58;10.43;;;5.73;;
36443;SDS011;24692;45.642;13.806;2024-01-11T03:05:24;11.37;;;6.47;;
36443;SDS011;24692;45.642;13.806;2024-01-11T03:07:49;12.20;;;6.27;;
36443;SDS011;24692;45.642;13.806;2024-01-11T03:10:15;12.47;;;6.77;;
36443;SDS011;24692;45.642;13.806;2024-01-11T03:12:41;13.20;;;6.60;;
36443;SDS011;24692;45.642;13.806;2024-01-11T03:15:07;11.10;;;6.47;;
36443;SDS011;24692;45.642;13.806;2024-01-11T03:17:33;11.03;;;6.13;;
36443;SDS011;24692;45.642;13.806;2024-01-11T03:19:59;12.03;;;6.17;;
36443;SDS011;24692;45.642;13.806;2024-01-11T03:22:25;12.10;;;6.47;;
36443;SDS011;24692;45.642;13.806;2024-01-11T03:24:51;11.23;;;6.20;;
36443;SDS011;24692;45.642;13.806;2024-01-11T03:27:16;12.70;;;6.87;;
36443;SDS011;24692;45.642;13.806;2024-01-11T03:29:43;11.90;;;6.00;;
36443;SDS011;24692;45.642;13.806;2024-01-11T03:32:08;9.20;;;5.37;;
36443;SDS011;24692;45.642;13.806;2024-01-11T03:34:37;14.90;;;6.23;;
36443;SDS011;24692;45.642;13.806;2024-01-11T03:37:03;11.77;;;6.53;;
36443;SDS011;24692;45.642;13.806;2024-01-11T03:39:29;11.70;;;6.07;;
36443;SDS011;24692;45.642;13.806;2024-01-11T03:41:54;11.90;;;5.77;;
36443;SDS011;24692;45.642;13.806;2024-01-11T03:44:20;11.50;;;5.93;;
36443;SDS011;24692;45.642;13.806;2024-01-11T03:46:46;9.10;;;5.20;;
36443;SDS011;24692;45.642;13.806;2024-01-11T03:49:11;10.77;;;5.93;;
36443;SDS011;24692;45.642;13.806;2024-01-11T03:51:37;9.53;;;5.63;;
36443;SDS011;24692;45.642;13.806;2024-01-11T03:54:03;8.83;;;5.37;;
36443;SDS011;24692;45.642;13.806;2024-01-11T03:56:28;9.47;;;5.83;;
36443;SDS011;24692;45.642;13.806;2024-01-11T03:58:54;9.47;;;5.63;;
36443;SDS011;24692;45.642;13.806;2024-01-11T04:01:20;8.53;;;5.43;;
36443;SDS011;24692;45.642;13.806;2024-01-11T04:03:45;9.53;;;5.53;;
36443;SDS011;24692;45.642;13.806;2024-01-11T04:06:33;8.30;;;4.77;;
36443;SDS011;24692;45.642;13.806;2024-01-11T04:08:57;7.03;;;4.60;;
36443;SDS011;24692;45.642;13.806;2024-01-11T04:11:23;8.47;;;4.90;;
36443;SDS011;24692;45.642;13.806;2024-01-11T04:13:52;7.40;;;4.70;;
36443;SDS011;24692;45.642;13.806;2024-01-11T04:16:17;8.37;;;4.30;;
36443;SDS011;24692;45.642;13.806;2024-01-11T04:18:43;7.87;;;4.17;;
36443;SDS011;24692;45.642;13.806;2024-01-11T04:21:19;7.57;;;4.80;;
36443;SDS011;24692;45.642;13.806;2024-01-11T04:23:47;6.83;;;4.10;;
36443;SDS011;24692;45.642;13.806;2024-01-11T04:26:12;8.10;;;4.73;;
36443;SDS011;24692;45.642;13.806;2024-01-11T04:28:38;9.80;;;5.13;;
36443;SDS011;24692;45.642;13.806;2024-01-11T04:31:03;8.17;;;4.80;;
36443;SDS011;24692;45.642;13.806;2024-01-11T04:33:29;8.20;;;4.67;;
36443;SDS011;24692;45.642;13.806;2024-01-11T04:35:55;6.73;;;4.33;;
36443;SDS011;24692;45.642;13.806;2024-01-11T04:38:20;6.50;;;4.60;;
36443;SDS011;24692;45.642;13.806;2024-01-11T04:40:46;9.40;;;5.20;;
36443;SDS011;24692;45.642;13.806;2024-01-11T04:43:12;8.27;;;4.80;;
36443;SDS011;24692;45.642;13.806;2024-01-11T04:45:37;8.73;;;4.80;;
36443;SDS011;24692;45.642;13.806;2024-01-11T04:48:03;8.27;;;4.70;;
36443;SDS011;24692;45.642;13.806;2024-01-11T04:50:29;7.70;;;4.63;;
36443;SDS011;24692;45.642;13.806;2024-01-11T04:52:55;7.80;;;5.17;;
36443;SDS011;24692;45.642;13.806;2024-01-11T04:55:20;8.00;;;4.20;;
36443;SDS011;24692;45.642;13.806;2024-01-11T04:57:46;10.03;;;5.60;;
36443;SDS011;24692;45.642;13.806;2024-01-11T05:00:12;7.93;;;4.97;;
36443;SDS011;24692;45.642;13.806;2024-01-11T05:02:38;8.03;;;4.67;;
36443;SDS011;24692;45.642;13.806;2024-01-11T05:05:03;8.47;;;4.90;;
36443;SDS011;24692;45.642;13.806;2024-01-11T05:07:29;10.10;;;5.17;;
36443;SDS011;24692;45.642;13.806;2024-01-11T05:09:55;8.60;;;5.13;;
36443;SDS011;24692;45.642;13.806;2024-01-11T05:12:20;8.07;;;5.37;;
36443;SDS011;24692;45.642;13.806;2024-01-11T05:14:46;8.87;;;5.10;;
36443;SDS011;24692;45.642;13.806;2024-01-11T05:17:12;6.73;;;4.27;;
36443;SDS011;24692;45.642;13.806;2024-01-11T05:19:38;7.00;;;4.43;;
36443;SDS011;24692;45.642;13.806;2024-01-11T05:22:04;6.97;;;4.40;;
36443;SDS011;24692;45.642;13.806;2024-01-11T05:24:29;7.30;;;5.00;;
36443;SDS011;24692;45.642;13.806;2024-01-11T05:26:55;8.40;;;5.07;;
36443;SDS011;24692;45.642;13.806;2024-01-11T05:29:21;9.90;;;5.00;;
36443;SDS011;24692;45.642;13.806;2024-01-11T05:31:46;9.33;;;4.90;;
36443;SDS011;24692;45.642;13.806;2024-01-11T05:34:12;7.97;;;4.80;;
36443;SDS011;24692;45.642;13.806;2024-01-11T05:36:38;9.87;;;5.00;;
36443;SDS011;24692;45.642;13.806;2024-01-11T05:39:03;7.20;;;4.40;;
36443;SDS011;24692;45.642;13.806;2024-01-11T05:41:29;8.40;;;4.40;;
36443;SDS011;24692;45.642;13.806;2024-01-11T05:43:55;8.17;;;4.63;;
36443;SDS011;24692;45.642;13.806;2024-01-11T05:46:20;6.37;;;4.00;;
36443;SDS011;24692;45.642;13.806;2024-01-11T05:48:46;6.17;;;4.00;;
36443;SDS011;24692;45.642;13.806;2024-01-11T05:51:12;6.00;;;3.97;;
36443;SDS011;24692;45.642;13.806;2024-01-11T05:53:37;7.00;;;4.20;;
36443;SDS011;24692;45.642;13.806;2024-01-11T05:56:09;8.03;;;3.93;;
36443;SDS011;24692;45.642;13.806;2024-01-11T05:58:35;7.67;;;3.83;;
36443;SDS011;24692;45.642;13.806;2024-01-11T06:01:04;5.67;;;4.10;;
36443;SDS011;24692;45.642;13.806;2024-01-11T06:03:29;8.27;;;4.67;;
36443;SDS011;24692;45.642;13.806;2024-01-11T06:05:59;7.53;;;4.57;;
36443;SDS011;24692;45.642;13.806;2024-01-11T06:08:25;7.70;;;4.23;;
36443;SDS011;24692;45.642;13.806;2024-01-11T06:10:51;7.57;;;3.97;;
36443;SDS011;24692;45.642;13.806;2024-01-11T06:13:17;6.93;;;4.10;;
36443;SDS011;24692;45.642;13.806;2024-01-11T06:15:43;6.47;;;3.70;;
36443;SDS011;24692;45.642;13.806;2024-01-11T06:18:09;6.43;;;3.80;;
36443;SDS011;24692;45.642;13.806;2024-01-11T06:20:35;8.13;;;4.60;;
36443;SDS011;24692;45.642;13.806;2024-01-11T06:23:01;7.67;;;3.90;;
36443;SDS011;24692;45.642;13.806;2024-01-11T06:25:27;7.97;;;5.03;;
36443;SDS011;24692;45.642;13.806;2024-01-11T06:27:53;9.37;;;4.73;;
36443;SDS011;24692;45.642;13.806;2024-01-11T06:30:18;8.70;;;4.80;;
36443;SDS011;24692;45.642;13.806;2024-01-11T06:32:44;9.37;;;5.03;;
36443;SDS011;24692;45.642;13.806;2024-01-11T06:35:10;8.83;;;4.43;;
36443;SDS011;24692;45.642;13.806;2024-01-11T06:37:35;7.53;;;4.50;;
36443;SDS011;24692;45.642;13.806;2024-01-11T06:40:01;7.90;;;4.30;;
36443;SDS011;24692;45.642;13.806;2024-01-11T06:42:28;9.40;;;5.00;;
36443;SDS011;24692;45.642;13.806;2024-01-11T06:44:55;9.43;;;4.77;;
36443;SDS011;24692;45.642;13.806;2024-01-11T06:47:20;8.13;;;4.70;;
36443;SDS011;24692;45.642;13.806;2024-01-11T06:49:46;9.83;;;5.10;;
36443;SDS011;24692;45.642;13.806;2024-01-11T06:52:12;9.27;;;4.97;;
36443;SDS011;24692;45.642;13.806;2024-01-11T06:54:39;8.27;;;5.00;;
36443;SDS011;24692;45.642;13.806;2024-01-11T06:57:05;8.37;;;4.87;;
36443;SDS011;24692;45.642;13.806;2024-01-11T06:59:32;6.30;;;4.20;;
36443;SDS011;24692;45.642;13.806;2024-01-11T07:01:58;8.07;;;4.60;;
36443;SDS011;24692;45.642;13.806;2024-01-11T07:04:23;7.03;;;4.30;;
36443;SDS011;24692;45.642;13.806;2024-01-11T07:06:49;6.90;;;3.73;;
36443;SDS011;24692;45.642;13.806;2024-01-11T07:09:14;7.53;;;4.37;;
36443;SDS011;24692;45.642;13.806;2024-01-11T07:11:42;8.97;;;4.30;;
36443;SDS011;24692;45.642;13.806;2024-01-11T07:14:08;6.03;;;4.13;;
36443;SDS011;24692;45.642;13.806;2024-01-11T07:16:36;7.30;;;4.10;;
36443;SDS011;24692;45.642;13.806;2024-01-11T07:19:01;8.57;;;4.77;;
36443;SDS011;24692;45.642;13.806;2024-01-11T07:21:27;7.50;;;4.00;;
36443;SDS011;24692;45.642;13.806;2024-01-11T07:23:57;6.83;;;4.17;;
36443;SDS011;24692;45.642;13.806;2024-01-11T07:26:23;8.40;;;4.67;;
36443;SDS011;24692;45.642;13.806;2024-01-11T07:28:49;6.90;;;4.10;;
36443;SDS011;24692;45.642;13.806;2024-01-11T07:31:16;7.20;;;4.50;;
36443;SDS011;24692;45.642;13.806;2024-01-11T07:33:42;7.70;;;4.13;;
36443;SDS011;24692;45.642;13.806;2024-01-11T07:36:08;7.63;;;4.63;;
36443;SDS011;24692;45.642;13.806;2024-01-11T07:38:34;11.93;;;5.20;;
36443;SDS011;24692;45.642;13.806;2024-01-11T07:41:00;8.07;;;4.37;;
36443;SDS011;24692;45.642;13.806;2024-01-11T07:43:26;5.67;;;4.20;;
36443;SDS011;24692;45.642;13.806;2024-01-11T07:45:56;6.90;;;3.93;;
36443;SDS011;24692;45.642;13.806;2024-01-11T07:48:22;10.70;;;4.33;;
36443;SDS011;24692;45.642;13.806;2024-01-11T07:50:48;9.10;;;4.57;;
36443;SDS011;24692;45.642;13.806;2024-01-11T07:53:14;7.87;;;4.50;;
36443;SDS011;24692;45.642;13.806;2024-01-11T07:55:42;7.30;;;4.30;;
36443;SDS011;24692;45.642;13.806;2024-01-11T07:58:13;6.93;;;4.10;;
36443;SDS011;24692;45.642;13.806;2024-01-11T08:00:40;7.40;;;4.30;;
36443;SDS011;24692;45.642;13.806;2024-01-11T08:03:05;8.07;;;4.27;;
36443;SDS011;24692;45.642;13.806;2024-01-11T08:05:31;7.13;;;4.13;;
36443;SDS011;24692;45.642;13.806;2024-01-11T08:07:57;6.90;;;4.10;;
36443;SDS011;24692;45.642;13.806;2024-01-11T08:10:26;6.13;;;3.93;;
36443;SDS011;24692;45.642;13.806;2024-01-11T08:12:52;5.70;;;3.90;;
36443;SDS011;24692;45.642;13.806;2024-01-11T08:15:18;6.17;;;4.10;;
36443;SDS011;24692;45.642;13.806;2024-01-11T08:17:46;6.53;;;4.00;;
36443;SDS011;24692;45.642;13.806;2024-01-11T08:20:12;5.93;;;3.90;;
36443;SDS011;24692;45.642;13.806;2024-01-11T08:22:44;5.10;;;3.70;;
36443;SDS011;24692;45.642;13.806;2024-01-11T08:25:11;6.77;;;4.20;;
36443;SDS011;24692;45.642;13.806;2024-01-11T08:27:38;6.83;;;3.90;;
36443;SDS011;24692;45.642;13.806;2024-01-11T08:30:04;6.00;;;4.30;;
36443;SDS011;24692;45.642;13.806;2024-01-11T08:32:30;5.83;;;4.33;;
36443;SDS011;24692;45.642;13.806;2024-01-11T08:34:58;6.87;;;4.40;;
36443;SDS011;24692;45.642;13.806;2024-01-11T08:37:24;6.27;;;4.50;;
36443;SDS011;24692;45.642;13.806;2024-01-11T08:39:50;5.10;;;3.70;;
36443;SDS011;24692;45.642;13.806;2024-01-11T08:42:15;6.97;;;4.47;;
36443;SDS011;24692;45.642;13.806;2024-01-11T08:44:42;4.87;;;3.60;;
36443;SDS011;24692;45.642;13.806;2024-01-11T08:47:08;6.70;;;3.87;;
36443;SDS011;24692;45.642;13.806;2024-01-11T08:49:38;4.93;;;3.90;;
36443;SDS011;24692;45.642;13.806;2024-01-11T08:52:04;6.00;;;3.63;;
36443;SDS011;24692;45.642;13.806;2024-01-11T08:54:31;7.53;;;3.63;;
36443;SDS011;24692;45.642;13.806;2024-01-11T08:57:00;4.50;;;3.50;;
36443;SDS011;24692;45.642;13.806;2024-01-11T08:59:26;6.10;;;3.80;;
36443;SDS011;24692;45.642;13.806;2024-01-11T09:01:52;4.83;;;3.80;;
36443;SDS011;24692;45.642;13.806;2024-01-11T09:04:18;5.57;;;4.20;;
36443;SDS011;24692;45.642;13.806;2024-01-11T09:06:44;9.23;;;4.90;;
36443;SDS011;24692;45.642;13.806;2024-01-11T09:09:10;8.30;;;4.80;;
36443;SDS011;24692;45.642;13.806;2024-01-11T09:11:38;8.70;;;4.40;;
36443;SDS011;24692;45.642;13.806;2024-01-11T09:14:06;5.20;;;3.60;;
36443;SDS011;24692;45.642;13.806;2024-01-11T09:16:32;5.80;;;3.83;;
36443;SDS011;24692;45.642;13.806;2024-01-11T09:18:58;7.07;;;4.13;;
36443;SDS011;24692;45.642;13.806;2024-01-11T09:21:27;7.87;;;3.60;;
36443;SDS011;24692;45.642;13.806;2024-01-11T09:23:52;7.67;;;3.80;;
36443;SDS011;24692;45.642;13.806;2024-01-11T09:26:18;7.27;;;3.97;;
36443;SDS011;24692;45.642;13.806;2024-01-11T09:28:44;8.03;;;3.67;;
36443;SDS011;24692;45.642;13.806;2024-01-11T09:31:10;6.13;;;3.77;;
36443;SDS011;24692;45.642;13.806;2024-01-11T09:33:36;5.65;;;3.50;;
36443;SDS011;24692;45.642;13.806;2024-01-11T09:36:03;5.20;;;4.07;;
36443;SDS011;24692;45.642;13.806;2024-01-11T09:38:29;8.30;;;4.17;;
36443;SDS011;24692;45.642;13.806;2024-01-11T09:41:08;8.30;;;3.90;;
36443;SDS011;24692;45.642;13.806;2024-01-11T09:43:36;8.57;;;4.15;;
36443;SDS011;24692;45.642;13.806;2024-01-11T09:46:05;6.35;;;4.43;;
36443;SDS011;24692;45.642;13.806;2024-01-11T09:48:35;6.03;;;4.68;;
36443;SDS011;24692;45.642;13.806;2024-01-11T09:51:03;6.88;;;3.85;;
36443;SDS011;24692;45.642;13.806;2024-01-11T09:53:31;6.50;;;4.13;;
36443;SDS011;24692;45.642;13.806;2024-01-11T09:55:58;6.53;;;3.88;;
36443;SDS011;24692;45.642;13.806;2024-01-11T09:58:25;8.52;;;4.25;;
36443;SDS011;24692;45.642;13.806;2024-01-11T10:00:55;8.98;;;4.32;;
36443;SDS011;24692;45.642;13.806;2024-01-11T10:03:24;6.28;;;4.28;;
36443;SDS011;24692;45.642;13.806;2024-01-11T10:05:51;7.40;;;4.00;;
36443;SDS011;24692;45.642;13.806;2024-01-11T10:08:22;6.00;;;4.13;;
36443;SDS011;24692;45.642;13.806;2024-01-11T10:10:49;4.68;;;3.40;;
36443;SDS011;24692;45.642;13.806;2024-01-11T10:13:15;5.45;;;4.00;;
36443;SDS011;24692;45.642;13.806;2024-01-11T10:15:43;4.97;;;3.58;;
36443;SDS011;24692;45.642;13.806;2024-01-11T10:18:10;4.87;;;3.57;;
36443;SDS011;24692;45.642;13.806;2024-01-11T10:20:37;6.93;;;4.13;;
36443;SDS011;24692;45.642;13.806;2024-01-11T10:23:03;5.77;;;3.80;;
36443;SDS011;24692;45.642;13.806;2024-01-11T10:25:29;14.20;;;4.30;;
36443;SDS011;24692;45.642;13.806;2024-01-11T10:27:55;4.93;;;3.80;;
36443;SDS011;24692;45.642;13.806;2024-01-11T10:30:23;5.70;;;3.50;;
36443;SDS011;24692;45.642;13.806;2024-01-11T10:32:50;6.87;;;3.57;;
36443;SDS011;24692;45.642;13.806;2024-01-11T10:35:16;5.57;;;3.28;;
36443;SDS011;24692;45.642;13.806;2024-01-11T10:37:43;4.38;;;3.55;;
36443;SDS011;24692;45.642;13.806;2024-01-11T10:40:09;4.77;;;3.50;;
36443;SDS011;24692;45.642;13.806;2024-01-11T10:42:49;5.68;;;3.40;;
36443;SDS011;24692;45.642;13.806;2024-01-11T10:45:17;5.68;;;3.40;;
36443;SDS011;24692;45.642;13.806;2024-01-11T10:50:18;5.95;;;3.83;;
36443;SDS011;24692;45.642;13.806;2024-01-11T10:53:03;5.77;;;3.70;;
36443;SDS011;24692;45.642;13.806;2024-01-11T10:55:50;6.53;;;3.67;;
36443;SDS011;24692;45.642;13.806;2024-01-11T10:58:16;4.67;;;3.70;;
36443;SDS011;24692;45.642;13.806;2024-01-11T11:00:44;5.27;;;4.17;;
36443;SDS011;24692;45.642;13.806;2024-01-11T11:03:11;4.87;;;3.43;;
36443;SDS011;24692;45.642;13.806;2024-01-11T11:05:39;5.90;;;4.27;;
36443;SDS011;24692;45.642;13.806;2024-01-11T11:08:05;5.43;;;3.77;;
36443;SDS011;24692;45.642;13.806;2024-01-11T11:10:33;5.30;;;3.57;;
36443;SDS011;24692;45.642;13.806;2024-01-11T11:13:00;4.40;;;3.43;;
36443;SDS011;24692;45.642;13.806;2024-01-11T11:15:29;4.87;;;3.70;;
36443;SDS011;24692;45.642;13.806;2024-01-11T11:17:54;5.43;;;3.90;;
36443;SDS011;24692;45.642;13.806;2024-01-11T11:20:21;4.43;;;3.60;;
36443;SDS011;24692;45.642;13.806;2024-01-11T11:23:02;5.90;;;3.63;;
36443;SDS011;24692;45.642;13.806;2024-01-11T11:25:31;4.60;;;3.40;;
36443;SDS011;24692;45.642;13.806;2024-01-11T11:27:58;6.10;;;3.33;;
36443;SDS011;24692;45.642;13.806;2024-01-11T11:30:29;5.47;;;3.40;;
36443;SDS011;24692;45.642;13.806;2024-01-11T11:33:06;5.10;;;4.00;;
36443;SDS011;24692;45.642;13.806;2024-01-11T11:35:36;4.97;;;3.77;;
36443;SDS011;24692;45.642;13.806;2024-01-11T11:38:02;7.90;;;4.13;;
36443;SDS011;24692;45.642;13.806;2024-01-11T11:40:35;5.20;;;3.60;;
36443;SDS011;24692;45.642;13.806;2024-01-11T11:43:04;6.17;;;3.63;;
36443;SDS011;24692;45.642;13.806;2024-01-11T11:45:31;4.60;;;3.53;;
36443;SDS011;24692;45.642;13.806;2024-01-11T11:47:57;7.27;;;3.40;;
36443;SDS011;24692;45.642;13.806;2024-01-11T11:50:23;4.53;;;3.13;;
36443;SDS011;24692;45.642;13.806;2024-01-11T11:52:53;5.20;;;3.20;;
36443;SDS011;24692;45.642;13.806;2024-01-11T11:55:23;3.97;;;3.00;;
36443;SDS011;24692;45.642;13.806;2024-01-11T11:57:50;4.37;;;3.17;;
36443;SDS011;24692;45.642;13.806;2024-01-11T12:00:17;4.53;;;3.20;;
36443;SDS011;24692;45.642;13.806;2024-01-11T12:02:44;5.03;;;3.17;;
36443;SDS011;24692;45.642;13.806;2024-01-11T12:05:12;4.33;;;3.20;;
36443;SDS011;24692;45.642;13.806;2024-01-11T12:07:38;4.80;;;3.50;;
36443;SDS011;24692;45.642;13.806;2024-01-11T12:10:04;3.93;;;3.03;;
36443;SDS011;24692;45.642;13.806;2024-01-11T12:39:11;5.87;;;4.17;;
36443;SDS011;24692;45.642;13.806;2024-01-11T12:41:38;9.87;;;4.27;;
36443;SDS011;24692;45.642;13.806;2024-01-11T12:44:04;7.23;;;4.30;;
36443;SDS011;24692;45.642;13.806;2024-01-11T12:46:31;6.67;;;4.10;;
36443;SDS011;24692;45.642;13.806;2024-01-11T12:48:58;5.90;;;3.83;;
36443;SDS011;24692;45.642;13.806;2024-01-11T12:51:25;6.90;;;3.97;;
36443;SDS011;24692;45.642;13.806;2024-01-11T12:53:52;4.83;;;3.90;;
36443;SDS011;24692;45.642;13.806;2024-01-11T12:56:18;4.97;;;3.83;;
36443;SDS011;24692;45.642;13.806;2024-01-11T12:58:46;6.33;;;3.97;;
36443;SDS011;24692;45.642;13.806;2024-01-11T13:01:12;6.83;;;4.13;;
36443;SDS011;24692;45.642;13.806;2024-01-11T13:03:39;5.17;;;3.40;;
36443;SDS011;24692;45.642;13.806;2024-01-11T13:06:09;5.53;;;3.60;;
36443;SDS011;24692;45.642;13.806;2024-01-11T13:08:36;8.90;;;4.03;;
36443;SDS011;24692;45.642;13.806;2024-01-11T13:11:05;6.67;;;4.00;;
36443;SDS011;24692;45.642;13.806;2024-01-11T13:13:35;7.70;;;4.20;;
36443;SDS011;24692;45.642;13.806;2024-01-11T13:16:01;7.23;;;4.03;;
36443;SDS011;24692;45.642;13.806;2024-01-11T13:18:39;7.32;;;4.00;;
36443;SDS011;24692;45.642;13.806;2024-01-11T13:21:05;6.27;;;4.00;;
36443;SDS011;24692;45.642;13.806;2024-01-11T13:23:31;6.47;;;4.07;;
36443;SDS011;24692;45.642;13.806;2024-01-11T13:25:58;8.90;;;4.13;;
36443;SDS011;24692;45.642;13.806;2024-01-11T13:28:24;5.00;;;4.00;;
36443;SDS011;24692;45.642;13.806;2024-01-11T13:30:51;6.43;;;3.70;;
36443;SDS011;24692;45.642;13.806;2024-01-11T13:33:17;6.82;;;4.18;;
36443;SDS011;24692;45.642;13.806;2024-01-11T13:35:44;5.03;;;3.58;;
36443;SDS011;24692;45.642;13.806;2024-01-11T13:38:10;4.78;;;3.85;;
36443;SDS011;24692;45.642;13.806;2024-01-11T13:40:36;8.43;;;4.20;;
36443;SDS011;24692;45.642;13.806;2024-01-11T13:43:03;5.97;;;3.85;;
36443;SDS011;24692;45.642;13.806;2024-01-11T13:45:28;5.65;;;3.53;;
36443;SDS011;24692;45.642;13.806;2024-01-11T13:47:57;6.95;;;4.03;;
36443;SDS011;24692;45.642;13.806;2024-01-11T13:50:23;6.10;;;4.13;;
36443;SDS011;24692;45.642;13.806;2024-01-11T13:52:49;5.57;;;4.10;;
36443;SDS011;24692;45.642;13.806;2024-01-11T13:55:15;5.50;;;4.03;;
36443;SDS011;24692;45.642;13.806;2024-01-11T13:57:43;6.88;;;4.18;;
36443;SDS011;24692;45.642;13.806;2024-01-11T14:00:09;7.93;;;4.27;;
36443;SDS011;24692;45.642;13.806;2024-01-11T14:02:38;5.72;;;3.67;;
36443;SDS011;24692;45.642;13.806;2024-01-11T14:05:08;6.75;;;4.30;;
36443;SDS011;24692;45.642;13.806;2024-01-11T14:07:40;5.50;;;4.70;;
36443;SDS011;24692;45.642;13.806;2024-01-11T14:10:07;10.57;;;4.60;;
36443;SDS011;24692;45.642;13.806;2024-01-11T14:12:34;5.68;;;4.03;;
36443;SDS011;24692;45.642;13.806;2024-01-11T14:15:04;7.03;;;3.70;;
36443;SDS011;24692;45.642;13.806;2024-01-11T14:17:34;5.55;;;4.13;;
36443;SDS011;24692;45.642;13.806;2024-01-11T14:20:00;9.10;;;4.63;;
36443;SDS011;24692;45.642;13.806;2024-01-11T14:22:26;8.13;;;4.40;;
36443;SDS011;24692;45.642;13.806;2024-01-11T14:24:52;9.33;;;4.20;;
36443;SDS011;24692;45.642;13.806;2024-01-11T14:27:19;9.37;;;4.93;;
36443;SDS011;24692;45.642;13.806;2024-01-11T14:29:46;5.55;;;3.80;;
36443;SDS011;24692;45.642;13.806;2024-01-11T14:32:12;8.30;;;4.37;;
36443;SDS011;24692;45.642;13.806;2024-01-11T14:34:40;6.00;;;4.20;;
36443;SDS011;24692;45.642;13.806;2024-01-11T14:37:07;6.27;;;4.20;;
36443;SDS011;24692;45.642;13.806;2024-01-11T14:39:33;9.37;;;4.73;;
36443;SDS011;24692;45.642;13.806;2024-01-11T14:41:58;7.77;;;5.40;;
36443;SDS011;24692;45.642;13.806;2024-01-11T14:44:24;6.47;;;4.40;;
36443;SDS011;24692;45.642;13.806;2024-01-11T14:46:50;7.23;;;3.97;;
36443;SDS011;24692;45.642;13.806;2024-01-11T14:49:15;6.87;;;4.60;;
36443;SDS011;24692;45.642;13.806;2024-01-11T14:51:41;7.73;;;4.93;;
36443;SDS011;24692;45.642;13.806;2024-01-11T14:54:07;6.37;;;4.73;;
36443;SDS011;24692;45.642;13.806;2024-01-11T14:56:32;21.13;;;16.63;;
36443;SDS011;24692;45.642;13.806;2024-01-11T14:59:00;13.57;;;9.93;;
36443;SDS011;24692;45.642;13.806;2024-01-11T15:01:26;12.67;;;7.13;;